Aeroporto :
LOGIN :

Iscrizione | Disclaimer

   EN    FR    IT 

 










Sommario :    VFR   VFR Marginale   IFR   IFR Intensivo   IFR Molto Intensivo
Visibilità : 
Base nubi : 
>= 8 km
>= 3000ft
5 / 8 km
1000 / 3000 ft
1500m / 5 km
500 / 1000 ft
800 / 1500m
200 / 500 ft
< 800m
< 200 ft
Simboli :   Temporali  Nebbia  Neve Forte  Precipitazioni Forti  Vento > 20 kt
SIGMETs :   Varie  Temporali  Ghiacco  Turbolenza  Onda orograficha  Ceneri Vulcaniche






- Altitudine del aeroporto : 0 ft
- Codice IATA : QFR


LIRH - Frosinone Military

ULTIMO METAR :
  • 131655Z 30007KT 6000 BKN025 12/10 Q1005

METARs OBSOLETI :
  • 131555Z 34005KT 6000 BKN025 FEW030CB 13/11 Q1004 RMK BKN MON CIME INC NC VIS MIN 6000 WIND THR16 /////KT WHT
  • 131455Z 11004KT 6000 BKN025 FEW030CB 14/12 Q1002 RMK BKN MON CIME INC NC VIS MIN 6000 WIND THR16 /////KT WHT

TAF TAF LIRH
Valido dal 13 a 15 ore il 14 a 00 ore UTC


131400Z 1315/1324 14006KT 6000 BKN030
TEMPO 1315/1318 2000 SHRA FEW025CB



MetMap, La meteo Aeronautica in un colpo d'occhio ! - Copyright ORBIFLY Dicembre 2007 - Disclaimer

ORBIFLY MET'MAP TEAM :

Programmazione e sviluppo : Alexandra Zaïnal
Concezione e sviluppo : Baudouin d'Aumeries
Co-Programmazione e sviluppo : Marc-Olivier Méhu
Supporto tecnico e logistico : Manuel Goepfert
Aiuto per la traduzione : Arnaldo La Scala

Contatto : metmap@orbifly.com




FONTI E CREDITI :

   NOAA